createdAt,value
2022-12-31T00:02:14.950Z,90.60
2022-12-31T00:04:41.623Z,90.46
2022-12-31T00:07:08.168Z,90.42
2022-12-31T00:09:34.594Z,90.21
2022-12-31T00:12:01.041Z,90.18
2022-12-31T00:14:27.667Z,90.04
2022-12-31T00:16:54.083Z,90.09
2022-12-31T00:19:20.551Z,90.14
2022-12-31T00:21:46.928Z,90.00
2022-12-31T00:24:13.355Z,90.10
2022-12-31T00:26:39.805Z,89.87
2022-12-31T00:29:06.369Z,89.87
2022-12-31T00:31:36.452Z,89.92
2022-12-31T00:34:03.663Z,89.72
2022-12-31T00:36:35.470Z,89.53
2022-12-31T00:39:03.426Z,89.36
2022-12-31T00:41:32.392Z,89.15
2022-12-31T00:43:59.382Z,88.89
2022-12-31T00:46:26.900Z,88.79
2022-12-31T00:48:54.084Z,88.82
2022-12-31T00:51:22.910Z,88.90
2022-12-31T00:53:50.038Z,89.46
2022-12-31T00:56:20.189Z,90.11
2022-12-31T01:00:36.941Z,90.27
2022-12-31T01:03:04.153Z,90.06
2022-12-31T01:05:31.984Z,89.95
2022-12-31T01:07:58.548Z,89.73
2022-12-31T01:10:54.795Z,89.45
2022-12-31T01:13:21.672Z,88.84
2022-12-31T01:15:48.179Z,88.49
2022-12-31T01:18:16.189Z,88.37
2022-12-31T01:20:44.312Z,88.22
2022-12-31T01:23:14.319Z,88.02
2022-12-31T01:25:41.936Z,87.74
2022-12-31T01:28:09.533Z,87.78
2022-12-31T01:30:40.007Z,87.52
2022-12-31T01:33:06.674Z,87.62
2022-12-31T01:35:35.271Z,87.79
2022-12-31T01:38:04.541Z,87.60
2022-12-31T01:40:31.026Z,87.68
2022-12-31T01:42:58.269Z,87.20
2022-12-31T01:45:25.167Z,87.35
2022-12-31T01:47:59.513Z,87.12
2022-12-31T01:50:33.486Z,86.74
2022-12-31T01:53:04.718Z,86.74
2022-12-31T01:55:36.444Z,86.54
2022-12-31T01:58:18.108Z,86.54
2022-12-31T02:00:45.074Z,86.11
2022-12-31T02:03:13.416Z,86.19
2022-12-31T02:05:46.886Z,85.63
2022-12-31T02:08:14.168Z,85.36
2022-12-31T02:10:41.845Z,85.40
2022-12-31T02:13:08.663Z,85.18
2022-12-31T02:15:59.416Z,85.13
2022-12-31T02:19:14.734Z,85.35
2022-12-31T02:22:14.268Z,85.48
2022-12-31T02:24:55.771Z,85.20
2022-12-31T02:27:42.413Z,84.94
2022-12-31T02:30:25.506Z,84.48
2022-12-31T02:33:03.542Z,84.23
2022-12-31T02:35:37.859Z,84.42
2022-12-31T02:38:10.486Z,83.64
2022-12-31T02:40:38.531Z,83.74
2022-12-31T02:43:05.045Z,83.48
2022-12-31T02:45:40.513Z,82.82
2022-12-31T02:48:31.565Z,82.89
2022-12-31T02:51:12.243Z,81.59
2022-12-31T02:54:06.125Z,81.20
2022-12-31T02:57:22.194Z,80.81
2022-12-31T03:00:16.140Z,79.06
2022-12-31T03:02:45.654Z,78.20
2022-12-31T03:05:14.889Z,78.18
2022-12-31T03:07:42.849Z,77.48
2022-12-31T03:10:10.103Z,77.34
2022-12-31T03:12:49.668Z,77.09
2022-12-31T03:15:26.422Z,77.14
2022-12-31T03:18:03.881Z,76.42
2022-12-31T03:20:56.020Z,76.76
2022-12-31T03:23:29.986Z,76.61
2022-12-31T03:26:00.462Z,76.40
2022-12-31T03:28:29.580Z,76.68
2022-12-31T03:31:01.366Z,76.72
2022-12-31T03:33:37.628Z,76.73
2022-12-31T03:36:07.542Z,76.49
2022-12-31T03:38:34.248Z,76.65
2022-12-31T03:41:00.733Z,76.94
2022-12-31T03:43:27.429Z,77.02
2022-12-31T03:45:54.795Z,77.49
2022-12-31T03:48:27.253Z,77.34
2022-12-31T03:50:53.685Z,77.49
2022-12-31T03:53:20.590Z,77.60
2022-12-31T03:55:51.858Z,77.90
2022-12-31T03:58:18.558Z,78.30
2022-12-31T04:00:45.272Z,78.54
2022-12-31T04:03:11.954Z,78.92
2022-12-31T04:05:38.614Z,79.42
2022-12-31T04:08:06.467Z,78.46
2022-12-31T04:10:33.060Z,78.45
2022-12-31T04:13:02.568Z,78.20
2022-12-31T04:15:29.015Z,78.45
2022-12-31T04:17:55.489Z,77.87
2022-12-31T04:20:22.256Z,78.03
2022-12-31T04:22:51.170Z,78.04
2022-12-31T04:25:17.687Z,77.98
2022-12-31T04:27:44.364Z,77.60
2022-12-31T04:30:13.257Z,77.67
2022-12-31T04:32:40.204Z,77.38
2022-12-31T04:35:09.428Z,77.57
2022-12-31T04:37:36.108Z,76.98
2022-12-31T04:40:06.508Z,77.09
2022-12-31T04:42:34.352Z,77.58
2022-12-31T04:45:00.992Z,77.64
2022-12-31T04:47:29.207Z,77.16
2022-12-31T04:49:56.008Z,76.83
2022-12-31T04:52:23.172Z,76.35
2022-12-31T04:54:49.635Z,76.27
2022-12-31T04:57:16.402Z,76.30
2022-12-31T04:59:43.010Z,76.17
2022-12-31T05:02:09.911Z,76.13
2022-12-31T05:04:36.493Z,76.06
2022-12-31T05:07:03.127Z,75.50
2022-12-31T05:09:29.778Z,75.29
2022-12-31T05:11:56.569Z,75.09
2022-12-31T05:14:24.490Z,73.96
2022-12-31T05:16:52.439Z,74.10
2022-12-31T05:19:27.898Z,73.96
2022-12-31T05:22:12.976Z,73.79
2022-12-31T05:24:39.519Z,72.11
2022-12-31T05:27:06.072Z,72.40
2022-12-31T05:29:32.548Z,72.40
2022-12-31T05:31:59.053Z,72.71
2022-12-31T05:34:25.653Z,72.35
2022-12-31T05:36:52.693Z,72.15
2022-12-31T05:39:19.302Z,71.31
2022-12-31T05:41:45.981Z,71.17
2022-12-31T05:44:16.838Z,70.59
2022-12-31T05:46:43.333Z,71.29
2022-12-31T05:49:09.867Z,70.62
2022-12-31T05:51:43.781Z,70.73
2022-12-31T05:54:10.481Z,70.75
2022-12-31T05:56:37.147Z,69.95
2022-12-31T05:59:06.249Z,69.97
2022-12-31T06:01:33.185Z,70.36
2022-12-31T06:04:01.941Z,70.55
2022-12-31T06:06:28.437Z,71.14
2022-12-31T06:08:55.064Z,71.28
2022-12-31T06:11:21.819Z,71.19
2022-12-31T06:13:48.497Z,70.52
2022-12-31T06:16:15.090Z,70.89
2022-12-31T06:18:41.654Z,70.95
2022-12-31T06:21:08.745Z,70.78
2022-12-31T06:23:35.653Z,71.38
2022-12-31T06:26:05.900Z,71.37
2022-12-31T06:28:35.560Z,71.63
2022-12-31T06:31:03.958Z,71.66
2022-12-31T06:33:33.586Z,71.43
2022-12-31T06:36:02.919Z,71.61
2022-12-31T06:38:32.856Z,71.51
2022-12-31T06:41:03.700Z,72.05
2022-12-31T06:43:30.223Z,71.85
2022-12-31T06:46:00.941Z,71.90
2022-12-31T06:48:27.404Z,71.68
2022-12-31T06:50:53.927Z,72.08
2022-12-31T06:53:20.370Z,72.02
2022-12-31T06:55:48.783Z,72.35
2022-12-31T06:58:16.606Z,72.31
2022-12-31T07:00:53.999Z,71.88
2022-12-31T07:03:48.636Z,71.77
2022-12-31T07:06:17.248Z,72.08
2022-12-31T07:08:43.816Z,71.69
2022-12-31T07:11:23.396Z,71.69
2022-12-31T07:13:58.765Z,70.97
2022-12-31T07:16:30.955Z,71.37
2022-12-31T07:19:22.052Z,71.33
2022-12-31T07:21:50.981Z,71.56
2022-12-31T07:24:17.932Z,70.74
2022-12-31T07:27:08.992Z,71.30
2022-12-31T07:32:57.652Z,70.86
2022-12-31T07:35:43.371Z,70.27
2022-12-31T07:38:18.984Z,70.00
2022-12-31T07:41:09.439Z,69.99
2022-12-31T07:43:55.760Z,70.10
2022-12-31T07:46:43.917Z,70.18
2022-12-31T07:49:12.393Z,70.65
2022-12-31T07:51:39.774Z,70.70
2022-12-31T07:54:13.378Z,71.35
2022-12-31T07:56:40.876Z,71.41
2022-12-31T07:59:30.721Z,71.71
2022-12-31T08:02:05.313Z,71.59
2022-12-31T08:04:45.113Z,70.20
2022-12-31T08:07:22.564Z,70.32
2022-12-31T08:09:56.498Z,70.10
2022-12-31T08:12:24.522Z,70.48
2022-12-31T08:14:51.253Z,70.64
2022-12-31T08:17:19.618Z,70.97
2022-12-31T08:19:46.623Z,70.36
2022-12-31T08:22:41.287Z,70.24
2022-12-31T08:25:19.743Z,70.20
2022-12-31T08:28:13.930Z,70.40
2022-12-31T08:31:08.617Z,70.63
2022-12-31T08:34:00.719Z,70.65
2022-12-31T08:36:50.395Z,70.24
2022-12-31T08:39:38.174Z,69.99
2022-12-31T08:42:25.658Z,69.70
2022-12-31T08:45:13.512Z,70.02
2022-12-31T08:48:04.489Z,69.87
2022-12-31T08:50:31.625Z,69.69
2022-12-31T08:52:58.681Z,69.94
2022-12-31T08:55:25.570Z,69.21
2022-12-31T08:57:56.335Z,69.63
2022-12-31T09:00:23.247Z,69.63
2022-12-31T09:02:58.163Z,69.41
2022-12-31T09:05:39.547Z,69.73
2022-12-31T09:08:37.153Z,69.48
2022-12-31T09:11:10.752Z,69.30
2022-12-31T09:14:01.652Z,69.28
2022-12-31T09:16:58.697Z,69.90
2022-12-31T09:19:25.252Z,69.51
2022-12-31T09:21:52.761Z,69.43
2022-12-31T09:24:19.461Z,69.41
2022-12-31T09:26:54.757Z,69.27
2022-12-31T09:29:39.742Z,69.48
2022-12-31T09:32:29.368Z,69.44
2022-12-31T09:35:22.302Z,69.28
2022-12-31T09:37:51.542Z,68.11
2022-12-31T09:40:39.839Z,67.18
2022-12-31T09:43:30.042Z,67.78
2022-12-31T09:46:25.755Z,67.34
2022-12-31T09:49:29.957Z,67.39
2022-12-31T09:52:21.082Z,66.68
2022-12-31T09:54:54.197Z,66.10
2022-12-31T09:57:47.959Z,67.04
2022-12-31T10:00:23.893Z,66.62
2022-12-31T10:03:15.087Z,66.68
2022-12-31T10:05:59.699Z,66.37
2022-12-31T10:09:01.421Z,66.42
2022-12-31T10:12:06.225Z,66.37
2022-12-31T10:15:00.826Z,66.93
2022-12-31T10:17:48.437Z,66.71
2022-12-31T10:20:45.160Z,66.55
2022-12-31T10:23:37.808Z,66.46
2022-12-31T10:26:18.508Z,66.36
2022-12-31T10:28:59.666Z,66.45
2022-12-31T10:31:38.781Z,66.51
2022-12-31T10:34:25.781Z,66.17
2022-12-31T10:37:06.264Z,66.25
2022-12-31T10:40:11.814Z,66.28
2022-12-31T10:43:09.268Z,66.33
2022-12-31T10:45:50.807Z,66.67
2022-12-31T10:48:48.347Z,66.82
2022-12-31T10:51:32.269Z,66.62
2022-12-31T10:54:48.271Z,66.43
2022-12-31T10:57:49.993Z,66.91
2022-12-31T11:00:22.694Z,66.43
2022-12-31T11:03:13.322Z,66.51
2022-12-31T11:05:56.558Z,66.61
2022-12-31T11:08:55.198Z,65.89
2022-12-31T11:11:45.828Z,66.03
2022-12-31T11:14:49.715Z,66.49
2022-12-31T11:17:38.167Z,66.49
2022-12-31T11:20:28.324Z,66.49
2022-12-31T11:23:16.362Z,66.41
2022-12-31T11:26:05.046Z,66.35
2022-12-31T11:28:43.773Z,65.93
2022-12-31T11:31:22.400Z,65.88
2022-12-31T11:34:26.635Z,65.55
2022-12-31T11:37:27.456Z,65.46
2022-12-31T11:40:28.783Z,65.48
2022-12-31T11:43:11.004Z,64.78
2022-12-31T11:45:50.276Z,65.01
2022-12-31T11:48:30.527Z,64.52
2022-12-31T11:51:04.066Z,64.58
2022-12-31T11:53:39.652Z,64.97
2022-12-31T11:56:19.956Z,64.55
2022-12-31T11:58:50.141Z,65.05
2022-12-31T12:01:36.150Z,65.36
2022-12-31T12:04:03.584Z,65.40
2022-12-31T12:06:32.317Z,65.26
2022-12-31T12:09:10.412Z,65.47
2022-12-31T12:11:40.017Z,65.22
2022-12-31T12:14:40.149Z,65.31
2022-12-31T12:17:09.245Z,65.93
2022-12-31T12:19:44.482Z,66.39
2022-12-31T12:22:23.803Z,66.30
2022-12-31T12:25:07.061Z,66.40
2022-12-31T12:27:35.796Z,66.44
2022-12-31T12:30:11.513Z,66.71
2022-12-31T12:32:38.344Z,66.75
2022-12-31T12:35:16.414Z,66.89
2022-12-31T12:37:42.861Z,66.91
2022-12-31T12:40:20.009Z,67.22
2022-12-31T12:42:48.743Z,67.17
2022-12-31T12:45:18.759Z,65.64
2022-12-31T12:47:48.131Z,66.59
2022-12-31T12:50:21.791Z,66.82
2022-12-31T12:53:14.270Z,67.00
2022-12-31T12:55:59.414Z,67.36
2022-12-31T12:58:47.649Z,67.42
2022-12-31T13:01:19.976Z,67.52
2022-12-31T13:04:33.608Z,67.13
2022-12-31T13:07:13.095Z,66.68
2022-12-31T13:10:17.851Z,66.52
2022-12-31T13:15:58.186Z,61.26
2022-12-31T13:18:39.980Z,61.69
2022-12-31T13:21:44.323Z,62.54
2022-12-31T13:24:29.356Z,65.42
2022-12-31T13:27:23.536Z,65.39
2022-12-31T13:29:50.595Z,68.69
2022-12-31T13:32:21.915Z,68.30
2022-12-31T13:34:53.662Z,68.68
2022-12-31T13:37:31.783Z,70.12
2022-12-31T13:40:05.336Z,69.52
2022-12-31T13:42:41.411Z,71.22
2022-12-31T13:45:16.945Z,71.71
2022-12-31T13:47:54.079Z,72.90
2022-12-31T13:50:26.191Z,72.16
2022-12-31T13:53:07.084Z,75.43
2022-12-31T13:55:40.093Z,76.92
2022-12-31T13:58:21.323Z,78.44
2022-12-31T14:00:53.341Z,79.85
2022-12-31T14:03:27.689Z,81.53
2022-12-31T14:06:03.171Z,79.97
2022-12-31T14:08:29.777Z,80.41
2022-12-31T14:11:02.086Z,79.82
2022-12-31T14:13:38.541Z,80.76
2022-12-31T14:16:29.838Z,79.25
2022-12-31T14:18:56.638Z,80.05
2022-12-31T14:22:05.877Z,80.30
2022-12-31T14:24:46.208Z,79.75
2022-12-31T14:27:20.592Z,80.13
2022-12-31T14:29:57.051Z,80.54
2022-12-31T14:32:53.794Z,80.16
2022-12-31T14:35:23.068Z,80.61
2022-12-31T14:38:00.170Z,80.00
2022-12-31T14:40:53.101Z,80.66
2022-12-31T14:43:44.246Z,80.54
2022-12-31T14:46:33.620Z,80.26
2022-12-31T14:49:14.633Z,79.93
2022-12-31T14:51:41.587Z,79.01
2022-12-31T14:54:29.541Z,79.33
2022-12-31T14:56:56.056Z,77.14
2022-12-31T14:59:28.905Z,76.74
2022-12-31T15:01:58.030Z,75.63
2022-12-31T15:04:45.401Z,75.03
2022-12-31T15:07:30.651Z,74.81
2022-12-31T15:10:29.929Z,74.52
2022-12-31T15:13:06.234Z,74.63
2022-12-31T15:16:14.123Z,74.70
2022-12-31T15:18:48.337Z,74.90
2022-12-31T15:21:33.254Z,73.51
2022-12-31T15:24:00.247Z,72.54
2022-12-31T15:26:31.934Z,72.39
2022-12-31T15:29:07.926Z,71.80
2022-12-31T15:31:36.416Z,71.79
2022-12-31T15:34:07.078Z,71.57
2022-12-31T15:36:38.967Z,71.06
2022-12-31T15:39:11.301Z,71.47
2022-12-31T15:42:03.068Z,71.10
2022-12-31T15:44:55.431Z,71.69
2022-12-31T15:47:33.277Z,71.33
2022-12-31T15:50:04.231Z,70.42
2022-12-31T15:52:41.701Z,70.48
2022-12-31T15:55:20.569Z,70.28
2022-12-31T15:57:47.820Z,69.87
2022-12-31T16:00:23.382Z,69.97
2022-12-31T16:02:54.821Z,70.21
2022-12-31T16:05:26.575Z,70.63
2022-12-31T16:07:57.920Z,70.48
2022-12-31T16:10:28.170Z,70.54
2022-12-31T16:12:57.354Z,70.68
2022-12-31T16:15:27.399Z,70.78
2022-12-31T16:18:05.985Z,70.41
2022-12-31T16:20:40.414Z,70.45
2022-12-31T16:23:21.388Z,70.68
2022-12-31T16:25:52.032Z,69.82
2022-12-31T16:28:21.923Z,70.23
2022-12-31T16:31:03.100Z,70.00
2022-12-31T16:33:31.248Z,70.19
2022-12-31T16:36:00.632Z,69.95
2022-12-31T16:38:37.773Z,70.44
2022-12-31T16:41:19.863Z,69.99
2022-12-31T16:43:49.430Z,70.10
2022-12-31T16:46:32.026Z,70.10
2022-12-31T16:49:08.068Z,69.43
2022-12-31T16:51:37.448Z,69.61
2022-12-31T16:54:04.816Z,69.50
2022-12-31T16:56:39.301Z,69.23
2022-12-31T16:59:28.194Z,68.56
2022-12-31T17:02:01.823Z,68.98
2022-12-31T17:04:29.917Z,68.96
2022-12-31T17:07:31.659Z,68.43
2022-12-31T17:10:13.079Z,68.61
2022-12-31T17:15:42.058Z,68.22
2022-12-31T17:18:22.525Z,68.73
2022-12-31T17:20:53.847Z,68.32
2022-12-31T17:23:28.704Z,68.05
2022-12-31T17:26:12.821Z,67.92
2022-12-31T17:28:47.490Z,68.29
2022-12-31T17:31:33.283Z,67.68
2022-12-31T17:34:15.158Z,67.72
2022-12-31T17:36:54.743Z,67.52
2022-12-31T17:39:23.587Z,67.87
2022-12-31T17:41:52.658Z,67.82
2022-12-31T17:44:25.736Z,67.32
2022-12-31T17:46:55.686Z,67.31
2022-12-31T17:49:27.207Z,67.54
2022-12-31T17:51:56.461Z,67.45
2022-12-31T17:54:23.213Z,67.46
2022-12-31T17:56:51.511Z,66.85
2022-12-31T17:59:22.569Z,66.49
2022-12-31T18:01:49.551Z,66.72
2022-12-31T18:04:19.060Z,67.14
2022-12-31T18:06:45.569Z,67.17
2022-12-31T18:09:12.067Z,66.58
2022-12-31T18:11:40.839Z,66.45
2022-12-31T18:14:07.545Z,66.03
2022-12-31T18:16:34.370Z,65.91
2022-12-31T18:19:01.475Z,66.15
2022-12-31T18:21:29.574Z,66.15
2022-12-31T18:26:23.476Z,65.77
2022-12-31T18:28:50.691Z,65.84
2022-12-31T18:31:25.665Z,65.92
2022-12-31T18:33:53.488Z,65.44
2022-12-31T18:36:21.761Z,64.65
2022-12-31T18:38:48.603Z,64.82
2022-12-31T18:41:21.699Z,64.44
2022-12-31T18:43:48.505Z,64.02
2022-12-31T18:46:18.361Z,64.40
2022-12-31T18:48:45.094Z,64.77
2022-12-31T18:51:19.912Z,64.25
2022-12-31T18:53:46.377Z,64.25
2022-12-31T18:57:36.018Z,64.27
2022-12-31T19:00:02.599Z,64.27
2022-12-31T19:02:29.111Z,63.83
2022-12-31T19:04:58.661Z,63.40
2022-12-31T19:07:25.150Z,62.83
2022-12-31T19:09:58.130Z,63.29
2022-12-31T19:12:24.940Z,63.41
2022-12-31T19:14:51.480Z,63.80
2022-12-31T19:17:18.796Z,63.85
2022-12-31T19:19:48.115Z,63.57
2022-12-31T19:22:18.009Z,63.27
2022-12-31T19:24:45.019Z,63.12
2022-12-31T19:27:11.709Z,63.02
2022-12-31T19:29:38.555Z,62.73
2022-12-31T19:32:07.943Z,62.93
2022-12-31T19:34:34.421Z,62.51
2022-12-31T19:37:00.901Z,62.20
2022-12-31T19:39:27.495Z,62.15
2022-12-31T19:41:58.757Z,62.47
2022-12-31T19:44:26.926Z,62.25
2022-12-31T19:46:53.481Z,61.69
2022-12-31T19:49:20.127Z,61.87
2022-12-31T19:51:46.698Z,62.30
2022-12-31T19:54:13.714Z,62.26
2022-12-31T19:56:40.401Z,62.10
2022-12-31T19:59:08.333Z,61.94
2022-12-31T20:01:34.882Z,61.68
2022-12-31T20:04:01.909Z,61.02
2022-12-31T20:06:28.551Z,61.07
2022-12-31T20:08:55.232Z,60.79
2022-12-31T20:11:23.825Z,61.07
2022-12-31T20:13:54.300Z,61.25
2022-12-31T20:16:24.630Z,61.16
2022-12-31T20:18:51.470Z,60.67
2022-12-31T20:21:21.794Z,60.65
2022-12-31T20:23:49.657Z,61.14
2022-12-31T20:26:16.702Z,60.76
2022-12-31T20:28:43.170Z,60.76
2022-12-31T20:31:15.711Z,60.55
2022-12-31T20:33:43.137Z,60.24
2022-12-31T20:36:13.123Z,60.28
2022-12-31T20:38:39.756Z,60.45
2022-12-31T20:41:11.523Z,60.47
2022-12-31T20:43:38.735Z,60.26
2022-12-31T20:46:18.930Z,60.91
2022-12-31T20:48:46.712Z,61.42
2022-12-31T20:51:14.992Z,61.55
2022-12-31T20:53:47.605Z,61.02
2022-12-31T20:56:15.480Z,61.73
2022-12-31T20:58:42.284Z,61.41
2022-12-31T21:01:12.966Z,61.69
2022-12-31T21:06:28.987Z,60.82
2022-12-31T21:08:57.212Z,60.50
2022-12-31T21:11:42.697Z,60.46
2022-12-31T21:14:09.387Z,59.82
2022-12-31T21:16:36.030Z,58.86
2022-12-31T21:19:02.717Z,59.23
2022-12-31T21:21:29.274Z,59.16
2022-12-31T21:23:55.779Z,59.16
2022-12-31T21:26:22.258Z,59.62
2022-12-31T21:28:48.764Z,59.73
2022-12-31T21:31:15.629Z,59.80
2022-12-31T21:33:47.033Z,59.95
2022-12-31T21:36:14.832Z,59.66
2022-12-31T21:38:41.495Z,60.41
2022-12-31T21:41:09.057Z,59.74
2022-12-31T21:43:35.728Z,60.28
2022-12-31T21:46:07.439Z,60.91
2022-12-31T21:48:34.102Z,60.88
2022-12-31T21:51:15.868Z,61.15
2022-12-31T21:53:42.398Z,61.41
2022-12-31T21:56:09.751Z,61.68
2022-12-31T21:58:38.206Z,61.90
2022-12-31T22:01:31.825Z,61.76
2022-12-31T22:04:01.254Z,61.75
2022-12-31T22:06:28.185Z,61.15
2022-12-31T22:08:56.129Z,61.12
2022-12-31T22:11:25.857Z,61.04
2022-12-31T22:13:53.358Z,61.03
2022-12-31T22:16:21.855Z,60.87
2022-12-31T22:18:48.927Z,60.66
2022-12-31T22:21:21.026Z,60.53
2022-12-31T22:23:53.273Z,60.35
2022-12-31T22:26:23.430Z,60.37
2022-12-31T22:28:50.671Z,60.34
2022-12-31T22:31:20.583Z,59.94
2022-12-31T22:33:47.602Z,59.87
2022-12-31T22:36:19.109Z,59.24
2022-12-31T22:38:46.225Z,59.13
2022-12-31T22:41:18.661Z,59.09
2022-12-31T22:43:58.654Z,58.70
2022-12-31T22:46:29.216Z,58.31
2022-12-31T22:48:58.538Z,58.16
2022-12-31T22:51:26.376Z,58.23
2022-12-31T22:53:55.933Z,57.98
2022-12-31T22:56:22.991Z,58.22
2022-12-31T22:58:49.606Z,57.76
2022-12-31T23:01:19.184Z,58.06
2022-12-31T23:03:47.245Z,57.79
2022-12-31T23:06:14.193Z,58.05
2022-12-31T23:08:40.787Z,58.08
2022-12-31T23:11:09.666Z,58.28
2022-12-31T23:13:59.842Z,57.78
2022-12-31T23:16:47.461Z,58.26
2022-12-31T23:19:33.860Z,58.08
2022-12-31T23:22:19.367Z,58.08
2022-12-31T23:24:45.866Z,57.38
2022-12-31T23:27:15.726Z,56.97
2022-12-31T23:29:47.121Z,56.69
2022-12-31T23:32:16.355Z,56.76
2022-12-31T23:34:45.595Z,56.18
2022-12-31T23:37:15.383Z,56.37
2022-12-31T23:39:42.662Z,56.88
2022-12-31T23:42:09.448Z,56.86
2022-12-31T23:44:35.914Z,56.39
2022-12-31T23:47:02.620Z,55.81
2022-12-31T23:49:29.187Z,55.67
2022-12-31T23:51:55.627Z,55.62
2022-12-31T23:54:22.180Z,55.70
2022-12-31T23:56:48.668Z,55.84
2022-12-31T23:59:15.433Z,55.91
